createdAt,value
2018-06-30T00:01:35.025Z,3.27
2018-06-30T00:04:03.609Z,3.53
2018-06-30T00:06:31.238Z,3.30
2018-06-30T00:08:58.763Z,3.13
2018-06-30T00:11:26.466Z,3.10
2018-06-30T00:13:54.287Z,3.43
2018-06-30T00:16:22.016Z,3.03
2018-06-30T00:18:49.574Z,2.87
2018-06-30T00:21:17.238Z,3.30
2018-06-30T00:23:44.878Z,2.87
2018-06-30T00:26:12.598Z,3.00
2018-06-30T00:28:40.125Z,3.37
2018-06-30T00:31:07.628Z,3.27
2018-06-30T00:33:35.653Z,3.80
2018-06-30T00:36:03.331Z,4.00
2018-06-30T00:38:30.945Z,3.67
2018-06-30T00:40:58.462Z,3.80
2018-06-30T00:43:26.040Z,3.57
2018-06-30T00:45:53.571Z,4.13
2018-06-30T00:48:21.091Z,3.17
2018-06-30T00:50:48.642Z,3.30
2018-06-30T00:53:16.178Z,3.00
2018-06-30T00:55:43.747Z,3.23
2018-06-30T00:58:11.253Z,3.43
2018-06-30T01:00:39.835Z,3.63
2018-06-30T01:03:07.388Z,3.43
2018-06-30T01:05:34.975Z,4.63
2018-06-30T01:08:02.469Z,3.07
2018-06-30T01:10:30.063Z,3.30
2018-06-30T01:12:57.598Z,3.83
2018-06-30T01:15:25.134Z,3.67
2018-06-30T01:17:52.664Z,3.50
2018-06-30T01:20:20.202Z,3.50
2018-06-30T01:22:47.722Z,3.33
2018-06-30T01:25:15.492Z,3.23
2018-06-30T01:27:43.095Z,3.60
2018-06-30T01:30:11.744Z,3.00
2018-06-30T01:32:39.581Z,2.90
2018-06-30T01:35:07.478Z,3.03
2018-06-30T01:37:35.055Z,3.13
2018-06-30T01:40:02.785Z,3.53
2018-06-30T01:42:30.382Z,3.63
2018-06-30T01:44:57.907Z,3.20
2018-06-30T01:47:25.430Z,2.93
2018-06-30T01:49:53.100Z,3.10
2018-06-30T01:52:20.842Z,3.40
2018-06-30T01:54:48.472Z,3.27
2018-06-30T01:57:16.034Z,2.83
2018-06-30T01:59:43.641Z,3.50
2018-06-30T02:02:11.201Z,3.30
2018-06-30T02:04:38.720Z,2.80
2018-06-30T02:07:06.264Z,3.57
2018-06-30T02:09:33.894Z,3.87
2018-06-30T02:12:01.535Z,3.63
2018-06-30T02:14:30.395Z,3.27
2018-06-30T02:16:58.106Z,3.13
2018-06-30T02:19:27.459Z,3.60
2018-06-30T02:21:55.954Z,4.47
2018-06-30T02:24:23.610Z,2.87
2018-06-30T02:26:51.591Z,3.07
2018-06-30T02:29:19.335Z,4.00
2018-06-30T02:31:47.020Z,3.80
2018-06-30T02:34:14.640Z,2.93
2018-06-30T02:36:42.211Z,3.27
2018-06-30T02:39:10.204Z,3.70
2018-06-30T02:41:37.629Z,3.53
2018-06-30T02:44:05.223Z,3.57
2018-06-30T02:46:32.979Z,3.17
2018-06-30T02:49:00.839Z,3.80
2018-06-30T02:51:28.358Z,3.83
2018-06-30T02:53:56.096Z,3.83
2018-06-30T02:56:23.612Z,3.63
2018-06-30T02:58:51.146Z,3.67
2018-06-30T03:01:18.687Z,4.43
2018-06-30T03:03:46.362Z,3.47
2018-06-30T03:06:13.914Z,3.80
2018-06-30T03:08:41.518Z,3.87
2018-06-30T03:11:09.187Z,3.70
2018-06-30T03:13:36.916Z,3.23
2018-06-30T03:16:04.457Z,3.63
2018-06-30T03:18:32.112Z,4.03
2018-06-30T03:20:59.711Z,3.70
2018-06-30T03:23:27.236Z,3.07
2018-06-30T03:25:54.754Z,3.70
2018-06-30T03:28:22.274Z,3.70
2018-06-30T03:30:49.805Z,3.90
2018-06-30T03:33:17.342Z,3.40
2018-06-30T03:35:44.859Z,3.83
2018-06-30T03:38:12.378Z,3.60
2018-06-30T03:40:39.895Z,3.87
2018-06-30T03:43:07.444Z,3.33
2018-06-30T03:45:35.235Z,3.00
2018-06-30T03:48:02.787Z,3.70
2018-06-30T03:50:30.307Z,3.70
2018-06-30T03:52:57.858Z,3.20
2018-06-30T03:55:25.383Z,3.20
2018-06-30T03:57:52.903Z,3.60
2018-06-30T04:00:20.580Z,2.93
2018-06-30T04:02:48.081Z,2.80
2018-06-30T04:05:15.721Z,2.93
2018-06-30T04:07:43.239Z,2.57
2018-06-30T04:10:10.774Z,3.43
2018-06-30T04:12:39.499Z,2.70
2018-06-30T04:15:07.187Z,2.93
2018-06-30T04:17:34.766Z,2.83
2018-06-30T04:20:02.255Z,2.90
2018-06-30T04:22:29.767Z,2.87
2018-06-30T04:24:57.663Z,3.80
2018-06-30T04:27:25.291Z,3.45
2018-06-30T04:29:52.831Z,2.60
2018-06-30T04:32:20.499Z,4.37
2018-06-30T04:34:48.022Z,2.83
2018-06-30T04:37:15.676Z,2.72
2018-06-30T04:39:43.294Z,3.75
2018-06-30T04:42:10.958Z,3.50
2018-06-30T04:44:38.965Z,4.00
2018-06-30T04:47:06.508Z,3.15
2018-06-30T04:49:34.060Z,3.02
2018-06-30T04:52:01.715Z,2.90
2018-06-30T04:54:29.362Z,3.15
2018-06-30T04:56:56.891Z,3.37
2018-06-30T04:59:24.403Z,3.45
2018-06-30T05:01:51.891Z,2.98
2018-06-30T05:04:19.987Z,3.52
2018-06-30T05:06:47.507Z,3.20
2018-06-30T05:09:15.063Z,4.15
2018-06-30T05:11:42.579Z,3.50
2018-06-30T05:14:10.113Z,6.90
2018-06-30T05:16:37.779Z,3.62
2018-06-30T05:19:05.311Z,3.55
2018-06-30T05:21:32.803Z,3.62
2018-06-30T05:24:00.327Z,3.33
2018-06-30T05:26:27.858Z,3.27
2018-06-30T05:28:55.466Z,4.10
2018-06-30T05:31:23.058Z,4.03
2018-06-30T05:33:50.611Z,4.15
2018-06-30T05:36:18.147Z,3.55
2018-06-30T05:38:45.683Z,4.40
2018-06-30T05:41:13.343Z,3.58
2018-06-30T05:43:41.011Z,3.90
2018-06-30T05:46:08.553Z,3.62
2018-06-30T05:48:36.187Z,3.70
2018-06-30T05:51:03.948Z,3.72
2018-06-30T05:53:31.478Z,4.17
2018-06-30T05:55:58.997Z,4.12
2018-06-30T05:58:26.511Z,3.72
2018-06-30T06:00:54.182Z,3.58
2018-06-30T06:03:21.737Z,3.67
2018-06-30T06:05:49.366Z,4.10
2018-06-30T06:08:16.950Z,3.60
2018-06-30T06:10:44.571Z,4.10
2018-06-30T06:13:12.128Z,4.12
2018-06-30T06:15:39.772Z,4.45
2018-06-30T06:18:07.302Z,5.55
2018-06-30T06:20:34.831Z,5.28
2018-06-30T06:23:02.350Z,4.65
2018-06-30T06:25:29.987Z,4.90
2018-06-30T06:27:57.635Z,5.20
2018-06-30T06:30:25.194Z,3.90
2018-06-30T06:32:52.780Z,3.87
2018-06-30T06:35:20.252Z,3.80
2018-06-30T06:37:47.872Z,3.20
2018-06-30T06:40:15.395Z,3.25
2018-06-30T06:42:43.163Z,4.05
2018-06-30T06:45:10.722Z,3.47
2018-06-30T06:47:38.419Z,4.35
2018-06-30T06:50:06.083Z,3.22
2018-06-30T06:52:33.798Z,3.35
2018-06-30T06:55:01.444Z,3.58
2018-06-30T06:57:29.000Z,3.50
2018-06-30T06:59:56.526Z,3.42
2018-06-30T07:02:24.063Z,3.12
2018-06-30T07:04:51.776Z,3.25
2018-06-30T07:07:19.757Z,3.72
2018-06-30T07:09:47.294Z,3.30
2018-06-30T07:12:15.075Z,3.50
2018-06-30T07:14:42.800Z,3.05
2018-06-30T07:17:10.477Z,3.85
2018-06-30T07:19:38.004Z,4.15
2018-06-30T07:22:05.637Z,3.20
2018-06-30T07:24:33.223Z,2.90
2018-06-30T07:27:00.837Z,3.37
2018-06-30T07:29:28.352Z,3.12
2018-06-30T07:31:55.958Z,3.65
2018-06-30T07:34:23.924Z,4.00
2018-06-30T07:36:51.486Z,4.17
2018-06-30T07:39:19.171Z,4.20
2018-06-30T07:41:46.960Z,5.15
2018-06-30T07:44:14.557Z,4.58
2018-06-30T07:46:42.142Z,4.40
2018-06-30T07:49:09.710Z,5.33
2018-06-30T07:51:37.234Z,5.00
2018-06-30T07:54:04.994Z,5.10
2018-06-30T07:56:32.880Z,4.67
2018-06-30T07:59:00.497Z,5.72
2018-06-30T08:01:28.024Z,5.08
2018-06-30T08:03:55.695Z,5.53
2018-06-30T08:06:23.220Z,5.85
2018-06-30T08:08:50.743Z,4.97
2018-06-30T08:11:18.287Z,4.87
2018-06-30T08:13:45.935Z,5.22
2018-06-30T08:16:13.475Z,5.35
2018-06-30T08:18:41.018Z,5.10
2018-06-30T08:21:08.520Z,5.60
2018-06-30T08:23:36.043Z,5.47
2018-06-30T08:26:03.988Z,6.28
2018-06-30T08:28:31.681Z,6.60
2018-06-30T08:30:59.322Z,6.25
2018-06-30T08:33:26.901Z,6.17
2018-06-30T08:35:54.454Z,6.00
2018-06-30T08:38:22.578Z,5.37
2018-06-30T08:40:51.336Z,6.87
2018-06-30T08:43:19.929Z,5.70
2018-06-30T08:45:48.495Z,5.15
2018-06-30T08:48:16.892Z,5.22
2018-06-30T08:50:45.733Z,5.45
2018-06-30T08:53:13.973Z,4.72
2018-06-30T08:55:41.544Z,5.45
2018-06-30T08:58:09.009Z,4.70
2018-06-30T09:00:36.564Z,4.25
2018-06-30T09:03:04.171Z,4.53
2018-06-30T09:05:32.676Z,4.35
2018-06-30T09:08:00.214Z,4.25
2018-06-30T09:10:27.739Z,5.40
2018-06-30T09:12:55.271Z,7.47
2018-06-30T09:15:22.792Z,4.15
2018-06-30T09:17:50.441Z,4.10
2018-06-30T09:20:18.207Z,4.15
2018-06-30T09:22:46.162Z,4.42
2018-06-30T09:25:13.746Z,6.33
2018-06-30T09:27:41.262Z,4.53
2018-06-30T09:30:09.576Z,4.78
2018-06-30T09:32:37.144Z,5.05
2018-06-30T09:35:04.681Z,3.95
2018-06-30T09:37:32.215Z,4.22
2018-06-30T09:39:59.722Z,4.30
2018-06-30T09:42:27.278Z,4.30
2018-06-30T09:44:55.080Z,4.12
2018-06-30T09:47:22.722Z,4.60
2018-06-30T09:49:50.370Z,4.22
2018-06-30T09:52:17.908Z,4.22
2018-06-30T09:54:45.610Z,5.55
2018-06-30T09:57:13.147Z,4.72
2018-06-30T09:59:40.968Z,4.83
2018-06-30T10:02:08.525Z,6.28
2018-06-30T10:04:36.084Z,6.30
2018-06-30T10:07:03.616Z,5.75
2018-06-30T10:09:31.135Z,5.47
2018-06-30T10:11:58.675Z,5.40
2018-06-30T10:14:26.301Z,6.45
2018-06-30T10:16:53.851Z,5.37
2018-06-30T10:19:21.407Z,4.70
2018-06-30T10:21:49.156Z,3.30
2018-06-30T10:24:16.682Z,4.42
2018-06-30T10:26:44.218Z,5.05
2018-06-30T10:29:11.852Z,3.55
2018-06-30T10:31:39.368Z,2.80
2018-06-30T10:34:06.951Z,2.90
2018-06-30T10:36:34.677Z,4.67
2018-06-30T10:39:02.274Z,2.87
2018-06-30T10:41:30.408Z,3.50
2018-06-30T10:43:57.952Z,3.33
2018-06-30T10:46:26.189Z,3.00
2018-06-30T10:48:53.810Z,2.83
2018-06-30T10:51:21.333Z,3.15
2018-06-30T10:53:48.855Z,2.77
2018-06-30T10:56:16.407Z,3.02
2018-06-30T10:58:43.934Z,2.25
2018-06-30T11:01:11.472Z,2.62
2018-06-30T11:03:39.146Z,2.72
2018-06-30T11:06:06.962Z,2.90
2018-06-30T11:08:34.655Z,2.40
2018-06-30T11:11:02.222Z,2.22
2018-06-30T11:13:29.707Z,2.72
2018-06-30T11:15:57.402Z,2.40
2018-06-30T11:18:24.942Z,1.85
2018-06-30T11:20:52.596Z,3.05
2018-06-30T11:23:20.149Z,2.12
2018-06-30T11:25:47.738Z,2.20
2018-06-30T11:28:15.272Z,2.90
2018-06-30T11:30:42.799Z,3.95
2018-06-30T11:33:10.346Z,3.10
2018-06-30T11:35:37.894Z,3.08
2018-06-30T11:38:05.579Z,3.08
2018-06-30T11:40:33.192Z,3.05
2018-06-30T11:43:00.627Z,3.20
2018-06-30T11:45:28.160Z,2.87
2018-06-30T11:47:55.706Z,3.05
2018-06-30T11:50:24.933Z,4.47
2018-06-30T11:52:52.867Z,2.52
2018-06-30T11:55:20.813Z,1.62
2018-06-30T11:57:49.163Z,3.15
2018-06-30T12:00:16.857Z,3.15
2018-06-30T12:02:44.413Z,2.05
2018-06-30T12:05:13.483Z,1.80
2018-06-30T12:07:41.027Z,2.33
2018-06-30T12:10:08.757Z,2.20
2018-06-30T12:12:36.262Z,2.50
2018-06-30T12:15:04.012Z,2.85
2018-06-30T12:17:32.380Z,2.45
2018-06-30T12:19:59.918Z,3.10
2018-06-30T12:22:27.479Z,1.80
2018-06-30T12:24:55.011Z,2.50
2018-06-30T12:27:22.592Z,4.45
2018-06-30T12:29:50.167Z,2.05
2018-06-30T12:32:17.721Z,1.98
2018-06-30T12:34:45.278Z,1.98
2018-06-30T12:37:12.860Z,2.35
2018-06-30T12:39:41.310Z,2.00
2018-06-30T12:42:08.886Z,2.47
2018-06-30T12:44:36.380Z,3.15
2018-06-30T12:47:04.091Z,2.33
2018-06-30T12:49:31.662Z,2.75
2018-06-30T12:51:59.251Z,1.98
2018-06-30T12:54:26.858Z,1.85
2018-06-30T12:56:54.359Z,2.30
2018-06-30T12:59:21.887Z,2.30
2018-06-30T13:01:49.394Z,1.92
2018-06-30T13:04:17.031Z,2.02
2018-06-30T13:06:44.534Z,1.80
2018-06-30T13:09:12.882Z,4.67
2018-06-30T13:11:40.529Z,2.22
2018-06-30T13:14:08.048Z,2.47
2018-06-30T13:16:36.363Z,2.10
2018-06-30T13:19:04.151Z,1.80
2018-06-30T13:21:31.814Z,1.90
2018-06-30T13:23:59.500Z,2.30
2018-06-30T13:26:27.377Z,2.40
2018-06-30T13:28:54.981Z,2.33
2018-06-30T13:31:22.551Z,1.82
2018-06-30T13:33:50.137Z,4.53
2018-06-30T13:36:17.661Z,1.98
2018-06-30T13:38:45.275Z,1.92
2018-06-30T13:41:12.814Z,1.90
2018-06-30T13:43:40.425Z,3.33
2018-06-30T13:46:08.002Z,1.98
2018-06-30T13:48:35.597Z,1.85
2018-06-30T13:51:03.285Z,2.12
2018-06-30T13:53:30.844Z,1.90
2018-06-30T13:55:58.461Z,2.27
2018-06-30T13:58:26.006Z,5.58
2018-06-30T14:00:53.691Z,5.53
2018-06-30T14:03:21.270Z,3.83
2018-06-30T14:05:48.803Z,1.98
2018-06-30T14:08:16.370Z,2.35
2018-06-30T14:10:44.034Z,2.65
2018-06-30T14:13:11.558Z,2.22
2018-06-30T14:15:39.247Z,1.95
2018-06-30T14:18:06.837Z,2.42
2018-06-30T14:20:34.350Z,3.70
2018-06-30T14:23:01.869Z,2.42
2018-06-30T14:25:29.402Z,2.90
2018-06-30T14:27:57.224Z,4.00
2018-06-30T14:30:24.815Z,2.05
2018-06-30T14:32:52.355Z,3.27
2018-06-30T14:35:19.874Z,2.77
2018-06-30T14:37:47.471Z,3.60
2018-06-30T14:40:15.288Z,3.77
2018-06-30T14:42:42.802Z,3.47
2018-06-30T14:45:10.363Z,3.65
2018-06-30T14:47:37.887Z,2.02
2018-06-30T14:50:05.488Z,1.90
2018-06-30T14:52:33.025Z,1.92
2018-06-30T14:55:00.631Z,2.27
2018-06-30T14:57:28.163Z,2.15
2018-06-30T14:59:55.808Z,2.37
2018-06-30T15:02:23.417Z,2.10
2018-06-30T15:04:51.038Z,1.72
2018-06-30T15:07:18.854Z,2.55
2018-06-30T15:09:46.482Z,4.28
2018-06-30T15:12:14.208Z,2.35
2018-06-30T15:14:41.731Z,2.70
2018-06-30T15:17:09.822Z,2.60
2018-06-30T15:19:37.408Z,3.72
2018-06-30T15:22:05.622Z,2.52
2018-06-30T15:24:33.434Z,2.40
2018-06-30T15:27:01.353Z,2.08
2018-06-30T15:29:29.083Z,2.70
2018-06-30T15:31:56.671Z,2.08
2018-06-30T15:34:24.187Z,2.15
2018-06-30T15:36:51.735Z,2.45
2018-06-30T15:39:19.434Z,3.25
2018-06-30T15:41:46.951Z,1.92
2018-06-30T15:44:14.746Z,2.15
2018-06-30T15:46:42.255Z,2.40
2018-06-30T15:49:09.908Z,2.27
2018-06-30T15:51:37.398Z,2.52
2018-06-30T15:54:05.339Z,3.27
2018-06-30T15:56:32.915Z,2.00
2018-06-30T15:59:00.441Z,2.27
2018-06-30T16:01:28.056Z,2.52
2018-06-30T16:03:55.554Z,2.42
2018-06-30T16:06:23.086Z,2.87
2018-06-30T16:08:50.682Z,4.83
2018-06-30T16:11:18.198Z,2.67
2018-06-30T16:13:45.743Z,2.17
2018-06-30T16:16:13.369Z,2.77
2018-06-30T16:18:40.862Z,2.42
2018-06-30T16:21:08.395Z,3.65
2018-06-30T16:23:35.934Z,2.25
2018-06-30T16:26:03.471Z,2.65
2018-06-30T16:28:31.029Z,3.75
2018-06-30T16:30:58.550Z,2.50
2018-06-30T16:33:26.083Z,2.60
2018-06-30T16:35:53.627Z,3.72
2018-06-30T16:38:21.175Z,3.98
2018-06-30T16:40:49.226Z,3.35
2018-06-30T16:43:17.014Z,2.87
2018-06-30T16:45:44.800Z,4.47
2018-06-30T16:48:12.717Z,7.12
2018-06-30T16:50:41.133Z,2.87
2018-06-30T16:53:09.335Z,3.87
2018-06-30T16:55:37.073Z,3.25
2018-06-30T16:58:05.408Z,3.10
2018-06-30T17:00:35.628Z,2.80
2018-06-30T17:03:03.606Z,2.80
2018-06-30T17:05:31.237Z,2.92
2018-06-30T17:07:58.862Z,3.25
2018-06-30T17:10:26.865Z,2.98
2018-06-30T17:12:54.498Z,3.77
2018-06-30T17:15:22.158Z,2.70
2018-06-30T17:17:49.675Z,8.73
2018-06-30T17:20:17.238Z,2.87
2018-06-30T17:22:44.767Z,2.98
2018-06-30T17:25:12.306Z,2.70
2018-06-30T17:27:39.858Z,3.98
2018-06-30T17:30:07.397Z,2.45
2018-06-30T17:32:34.918Z,2.45
2018-06-30T17:35:02.567Z,2.15
2018-06-30T17:37:30.183Z,2.50
2018-06-30T17:39:57.753Z,2.47
2018-06-30T17:42:25.443Z,5.45
2018-06-30T17:44:52.988Z,2.72
2018-06-30T17:47:20.531Z,2.45
2018-06-30T17:49:48.943Z,2.50
2018-06-30T17:52:17.586Z,6.08
2018-06-30T17:54:45.948Z,7.10
2018-06-30T17:57:13.503Z,6.00
2018-06-30T17:59:41.036Z,8.78
2018-06-30T18:02:08.559Z,5.17
2018-06-30T18:04:36.074Z,5.28
2018-06-30T18:07:03.733Z,6.53
2018-06-30T18:09:31.245Z,5.28
2018-06-30T18:11:58.914Z,2.52
2018-06-30T18:14:26.562Z,2.85
2018-06-30T18:16:54.146Z,2.37
2018-06-30T18:19:21.721Z,2.90
2018-06-30T18:21:49.423Z,4.65
2018-06-30T18:24:17.118Z,5.35
2018-06-30T18:26:44.654Z,6.45
2018-06-30T18:29:12.194Z,5.97
2018-06-30T18:31:39.718Z,3.27
2018-06-30T18:34:07.350Z,2.95
2018-06-30T18:36:34.923Z,3.10
2018-06-30T18:39:02.790Z,4.45
2018-06-30T18:41:30.390Z,3.87
2018-06-30T18:43:58.134Z,3.05
2018-06-30T18:46:25.702Z,4.53
2018-06-30T18:48:53.327Z,2.27
2018-06-30T18:51:20.906Z,2.87
2018-06-30T18:53:49.256Z,2.40
2018-06-30T18:56:17.116Z,2.80
2018-06-30T18:58:44.988Z,2.33
2018-06-30T19:01:12.616Z,3.35
2018-06-30T19:03:40.207Z,2.23
2018-06-30T19:06:07.954Z,2.57
2018-06-30T19:08:36.060Z,3.10
2018-06-30T19:11:03.558Z,2.73
2018-06-30T19:13:31.447Z,2.97
2018-06-30T19:15:59.484Z,2.70
2018-06-30T19:18:27.023Z,2.80
2018-06-30T19:20:54.550Z,4.33
2018-06-30T19:23:22.099Z,2.87
2018-06-30T19:25:49.970Z,2.50
2018-06-30T19:28:17.564Z,3.73
2018-06-30T19:30:45.114Z,2.20
2018-06-30T19:33:12.618Z,2.30
2018-06-30T19:35:40.352Z,1.83
2018-06-30T19:38:08.120Z,2.10
2018-06-30T19:40:35.944Z,1.80
2018-06-30T19:43:03.478Z,2.60
2018-06-30T19:45:31.072Z,2.40
2018-06-30T19:47:58.569Z,2.63
2018-06-30T19:50:26.111Z,2.90
2018-06-30T19:52:53.643Z,2.50
2018-06-30T19:55:21.155Z,2.10
2018-06-30T19:57:48.674Z,3.03
2018-06-30T20:00:16.358Z,1.93
2018-06-30T20:02:43.952Z,2.17
2018-06-30T20:05:11.582Z,2.50
2018-06-30T20:07:44.671Z,1.70
2018-06-30T20:10:12.751Z,1.60
2018-06-30T20:12:41.195Z,2.20
2018-06-30T20:15:08.987Z,3.07
2018-06-30T20:17:37.284Z,1.73
2018-06-30T20:20:04.842Z,1.77
2018-06-30T20:22:32.504Z,2.03
2018-06-30T20:25:00.517Z,1.50
2018-06-30T20:27:28.329Z,1.60
2018-06-30T20:29:55.966Z,2.10
2018-06-30T20:32:23.921Z,2.23
2018-06-30T20:34:51.691Z,1.43
2018-06-30T20:37:19.401Z,2.47
2018-06-30T20:39:47.114Z,1.50
2018-06-30T20:42:14.646Z,1.40
2018-06-30T20:44:42.161Z,1.20
2018-06-30T20:47:09.655Z,2.70
2018-06-30T20:49:37.279Z,2.30
2018-06-30T20:52:04.878Z,1.60
2018-06-30T20:54:32.452Z,1.80
2018-06-30T20:56:59.979Z,1.63
2018-06-30T20:59:27.654Z,3.03
2018-06-30T21:01:55.459Z,1.90
2018-06-30T21:04:22.998Z,0.93
2018-06-30T21:06:50.709Z,1.20
2018-06-30T21:09:18.814Z,1.27
2018-06-30T21:11:46.374Z,1.27
2018-06-30T21:14:13.902Z,1.17
2018-06-30T21:16:41.564Z,1.90
2018-06-30T21:19:09.066Z,1.20
2018-06-30T21:21:36.647Z,1.60
2018-06-30T21:24:04.200Z,0.97
2018-06-30T21:26:31.806Z,1.50
2018-06-30T21:28:59.361Z,1.13
2018-06-30T21:31:26.949Z,1.17
2018-06-30T21:33:54.441Z,1.27
2018-06-30T21:36:22.054Z,1.10
2018-06-30T21:38:49.575Z,1.20
2018-06-30T21:41:17.131Z,1.20
2018-06-30T21:43:44.727Z,0.97
2018-06-30T21:46:12.349Z,2.83
2018-06-30T21:48:39.944Z,1.03
2018-06-30T21:51:07.534Z,2.47
2018-06-30T21:53:35.151Z,0.70
2018-06-30T21:56:02.763Z,0.87
2018-06-30T21:58:30.294Z,0.83
2018-06-30T22:01:03.410Z,1.07
2018-06-30T22:03:31.200Z,0.80
2018-06-30T22:05:58.727Z,1.93
2018-06-30T22:08:26.258Z,1.30
2018-06-30T22:10:54.044Z,0.50
2018-06-30T22:13:21.507Z,1.17
2018-06-30T22:15:49.664Z,1.60
2018-06-30T22:18:17.204Z,0.80
2018-06-30T22:20:44.750Z,0.50
2018-06-30T22:23:12.334Z,1.00
2018-06-30T22:25:39.851Z,0.70
2018-06-30T22:28:07.499Z,1.07
2018-06-30T22:30:35.006Z,1.15
2018-06-30T22:33:03.009Z,1.60
2018-06-30T22:35:30.773Z,0.83
2018-06-30T22:37:58.398Z,0.50
2018-06-30T22:40:26.219Z,1.27
2018-06-30T22:42:53.972Z,0.93
2018-06-30T22:45:21.623Z,0.60
2018-06-30T22:47:49.179Z,0.53
2018-06-30T22:50:17.968Z,0.80
2018-06-30T22:52:45.562Z,1.00
2018-06-30T22:55:13.351Z,0.97
2018-06-30T22:57:41.080Z,0.40
2018-06-30T23:00:10.959Z,0.70
2018-06-30T23:02:39.032Z,0.43
2018-06-30T23:05:07.187Z,0.60
2018-06-30T23:09:56.292Z,1.40
2018-06-30T23:12:23.955Z,0.50
2018-06-30T23:14:51.512Z,0.60
2018-06-30T23:17:19.042Z,0.80
2018-06-30T23:19:46.672Z,1.27
2018-06-30T23:22:16.028Z,0.77
2018-06-30T23:24:43.570Z,0.40
2018-06-30T23:27:11.223Z,2.57
2018-06-30T23:29:38.778Z,0.60
2018-06-30T23:32:06.470Z,0.53
2018-06-30T23:34:34.203Z,0.50
2018-06-30T23:37:02.110Z,1.00
2018-06-30T23:39:29.663Z,0.60
2018-06-30T23:41:57.256Z,1.73
2018-06-30T23:44:24.993Z,0.77
2018-06-30T23:46:52.567Z,0.60
2018-06-30T23:49:20.287Z,1.60
2018-06-30T23:51:48.198Z,1.60
2018-06-30T23:54:15.866Z,0.70
2018-06-30T23:56:43.408Z,0.80
2018-06-30T23:59:11.047Z,0.77
